Date,TemperatureHighF,TemperatureAvgF,TemperatureLowF,DewpointHighF,DewpointAvgF,DewpointLowF,HumidityHigh,HumidityAvg,HumidityLow,PressureMaxIn,PressureMinIn,WindSpeedMaxMPH,WindSpeedAvgMPH,GustSpeedMaxMPH,PrecipitationSumIn
2013-1-1,56.3,51.9,47.5,44.9,42.9,41.2,81,71,64,30.16,30.08,20,8,22,0.00
2013-1-2,58.8,49.9,43.7,48.0,43.9,38.9,87,80,67,30.34,30.16,8,2,8,0.00
2013-1-3,58.1,50.0,43.2,49.5,43.9,38.9,93,80,68,30.43,30.32,14,4,14,0.01
2013-1-4,58.8,50.2,42.4,42.3,36.0,32.1,82,60,38,30.36,30.06,12,3,12,0.00
2013-1-5,57.7,51.1,44.4,36.4,33.2,30.4,62,51,37,30.06,29.78,21,5,21,0.00
2013-1-6,51.6,45.8,40.8,38.0,34.2,29.1,79,64,48,29.93,29.72,35,10,35,0.11
2013-1-7,53.2,45.1,38.5,31.1,25.7,15.9,63,47,30,30.03,29.87,29,8,29,0.00
2013-1-8,43.3,36.8,34.0,32.0,26.9,19.1,79,67,52,30.21,30.02,30,11,30,0.04
2013-1-9,45.0,38.6,33.1,28.7,24.0,19.3,71,56,44,30.26,30.18,17,4,17,0.00
2013-1-10,53.1,43.0,33.3,34.7,26.9,19.6,72,55,30,30.20,30.04,13,3,13,0.00
2013-1-11,63.1,55.6,45.5,49.9,46.0,34.4,82,71,54,30.04,29.81,17,5,17,0.22
2013-1-12,61.2,53.1,46.6,48.3,42.0,37.3,84,67,47,30.05,29.81,16,4,16,0.02
2013-1-13,55.9,48.5,42.6,42.9,39.2,36.4,82,71,54,30.25,30.05,10,3,10,0.00
2013-1-14,59.4,49.7,41.5,48.8,42.6,36.5,87,77,61,30.31,30.24,8,2,8,0.00
2013-1-15,63.3,54.6,44.8,50.7,45.8,41.2,90,73,55,30.28,30.03,15,3,15,0.20
2013-1-16,63.9,56.5,51.3,50.6,45.9,38.3,82,68,56,30.04,29.66,20,7,20,0.73
2013-1-17,61.7,55.5,45.7,48.6,42.8,37.0,73,63,50,29.80,29.66,25,6,25,0.05
2013-1-18,59.5,54.6,47.3,49.3,43.4,34.4,83,66,57,29.67,29.44,27,9,27,0.41
2013-1-19,57.0,50.5,45.1,37.9,35.6,33.9,67,57,46,29.88,29.53,21,6,21,0.00
2013-1-20,65.8,55.3,43.9,51.7,44.4,35.9,77,67,53,29.96,29.86,23,4,23,0.00
2013-1-21,65.1,58.5,50.4,51.9,48.0,43.3,87,69,47,29.93,29.66,18,4,18,0.00
2013-1-22,64.6,57.8,52.5,49.7,44.1,40.2,75,61,44,29.81,29.67,17,4,17,0.00
2013-1-23,61.9,54.7,49.3,45.3,39.7,35.3,71,58,41,29.97,29.79,17,4,17,0.00
2013-1-24,65.5,56.1,44.6,50.7,45.2,39.8,83,67,50,29.96,29.57,22,5,22,0.40
2013-1-25,60.1,51.7,43.2,46.0,41.9,37.1,85,70,53,29.67,29.50,19,5,19,0.17
2013-1-26,57.0,50.9,47.1,47.6,43.2,38.7,84,75,61,29.66,29.44,17,4,17,0.27
2013-1-27,52.3,48.5,46.4,41.7,39.8,38.6,82,72,63,29.95,29.66,19,9,19,0.01
2013-1-28,56.8,49.8,45.7,41.1,38.1,34.5,74,64,52,30.01,29.89,14,4,14,0.00
2013-1-29,50.9,46.9,41.2,40.6,38.2,33.5,78,72,66,30.11,30.01,16,5,16,0.00
2013-1-30,54.7,47.9,41.2,36.8,33.6,28.1,77,59,38,30.10,29.96,12,4,12,0.00
2013-1-31,63.0,52.1,41.7,44.1,36.4,27.3,71,56,38,30.02,29.84,29,5,29,0.00
2013-2-1,59.5,51.8,43.7,40.8,32.3,24.8,77,49,27,30.08,29.90,22,5,22,0.00
2013-2-2,64.9,55.8,44.8,50.5,44.3,38.0,78,66,48,29.91,29.77,20,5,20,0.00
2013-2-3,68.4,62.7,58.8,49.4,47.4,45.0,69,58,44,29.95,29.78,32,7,32,0.00
2013-2-4,64.8,59.3,54.0,54.4,51.0,46.9,87,74,64,30.00,29.92,11,2,11,0.00
2013-2-5,61.5,56.1,50.2,53.3,48.6,42.9,90,77,59,30.00,29.85,17,6,17,0.00
2013-2-6,63.1,53.9,44.6,50.1,44.9,40.2,87,72,56,29.86,29.67,14,3,14,0.00
2013-2-7,63.1,56.8,51.3,47.3,43.8,41.1,78,62,48,29.72,29.52,28,9,28,0.45
2013-2-8,58.1,52.5,46.0,42.9,39.0,33.6,68,60,52,29.76,29.53,24,5,24,0.00
2013-2-9,61.0,51.0,41.2,40.9,36.5,33.5,75,59,39,29.88,29.75,17,3,17,0.00
2013-2-10,59.7,50.8,44.1,40.1,36.5,31.5,73,59,36,29.88,29.80,14,4,14,0.00
2013-2-11,57.6,48.0,41.2,35.9,31.5,25.4,76,55,31,30.06,29.78,24,6,24,0.00
2013-2-12,63.3,50.8,39.0,43.2,36.9,29.3,70,59,35,30.09,30.01,15,3,15,0.00
2013-2-13,59.4,54.0,48.6,46.0,42.7,38.0,85,66,52,30.02,29.89,22,5,22,0.57
2013-2-14,54.9,49.9,47.1,45.9,43.2,39.5,87,78,60,29.92,29.68,13,5,13,0.32
2013-2-15,52.9,48.6,46.2,46.2,42.2,38.9,87,79,66,30.04,29.67,21,7,21,0.25
2013-2-16,55.9,49.5,43.5,43.6,40.9,37.1,86,73,60,30.07,30.01,14,3,14,1.49
2013-2-17,48.2,46.3,45.0,44.2,41.1,36.3,90,82,71,30.07,29.96,27,10,27,1.18
2013-2-18,52.9,47.6,42.6,37.7,35.8,34.1,77,64,51,30.10,30.05,18,6,18,0.00
2013-2-19,55.8,48.3,42.1,51.2,42.2,35.6,89,79,67,30.07,29.77,12,2,12,0.74
2013-2-20,56.7,48.9,39.9,40.7,36.9,34.4,81,64,45,30.07,29.82,19,4,19,0.01
2013-2-21,56.5,50.6,43.5,50.7,41.7,36.0,81,72,60,30.07,29.73,14,3,14,0.11
2013-2-22,59.2,54.3,49.1,51.5,48.1,44.6,87,80,71,29.74,29.56,21,7,21,1.26
2013-2-23,65.5,53.7,45.3,54.1,47.1,42.6,97,80,45,30.04,29.74,13,3,13,0.01
2013-2-24,65.3,56.0,48.2,58.3,50.8,45.2,100,83,66,30.10,30.03,11,3,11,0.01
2013-2-25,65.8,58.8,50.7,59.2,52.2,48.8,100,80,65,30.09,29.98,15,4,15,0.01
2013-2-26,67.5,59.9,50.2,52.9,47.3,39.0,80,64,45,30.04,29.97,15,4,15,0.00
2013-2-27,61.0,52.9,45.5,42.4,37.7,30.6,73,58,32,30.07,29.94,21,5,21,0.00
2013-2-28,53.2,49.3,45.7,39.6,37.3,33.2,73,63,56,30.22,30.06,23,10,23,0.00
2013-3-1,55.8,48.6,42.1,37.3,34.0,30.0,73,57,46,30.21,30.03,14,5,14,0.00
2013-3-2,57.4,50.1,40.1,44.9,40.1,33.7,82,69,55,30.03,29.88,18,4,18,0.00
2013-3-3,55.9,52.2,46.4,48.0,42.1,34.6,87,69,57,29.97,29.77,37,17,37,0.64
2013-3-4,57.0,50.7,43.3,41.8,37.1,31.5,76,60,48,30.18,29.97,14,5,14,0.00
2013-3-5,55.6,50.2,44.1,39.4,35.2,31.7,77,57,42,30.43,30.18,24,10,24,0.00
2013-3-6,56.1,50.1,44.8,38.1,33.6,31.3,64,53,43,30.42,30.16,18,7,18,0.00
2013-3-7,57.6,52.0,48.4,50.4,45.1,38.1,89,77,64,30.17,29.93,10,2,10,0.52
2013-3-8,64.0,55.1,50.2,53.4,50.2,48.1,95,84,60,29.93,29.84,13,2,13,0.05
2013-3-9,69.8,59.8,51.3,57.6,51.4,45.5,95,75,54,29.86,29.70,15,4,15,0.01
2013-3-10,70.5,61.0,52.9,52.4,47.1,41.9,85,61,38,29.81,29.73,16,4,16,0.00
2013-3-11,73.2,60.9,51.1,57.3,51.2,42.9,92,72,50,29.73,29.56,16,4,16,0.00
2013-3-12,71.2,61.2,54.5,45.9,42.0,35.1,68,51,27,29.72,29.58,17,4,17,0.00
2013-3-13,68.4,59.8,50.4,50.2,44.5,37.8,69,58,43,29.75,29.69,24,5,24,0.00
2013-3-14,68.4,63.7,57.6,50.2,45.3,34.6,68,52,38,29.72,29.31,31,8,31,0.00
2013-3-15,63.3,56.5,47.8,40.8,37.8,34.7,66,50,37,29.62,29.40,24,6,24,0.00
2013-3-16,58.5,50.0,45.0,37.8,34.0,30.5,64,54,38,30.01,29.60,19,6,19,0.00
2013-3-17,53.4,47.4,41.5,33.1,31.3,28.1,70,54,39,30.20,30.01,17,5,17,0.00
2013-3-18,57.0,49.4,40.1,44.5,38.4,31.5,76,66,47,30.22,29.96,11,2,11,0.01
2013-3-19,66.4,59.2,52.5,50.1,45.9,42.5,75,62,49,29.98,29.76,24,5,24,0.01
2013-3-20,66.6,59.0,51.6,55.7,51.6,47.4,96,77,54,29.92,29.83,11,3,11,0.00
2013-3-21,66.2,61.1,54.5,58.2,54.5,45.8,96,79,59,29.83,29.53,17,4,17,0.00
2013-3-22,66.4,58.2,49.3,45.8,32.9,25.9,63,40,23,29.79,29.51,34,9,34,0.00
2013-3-23,62.6,54.4,45.9,37.5,24.1,10.0,65,33,14,29.99,29.78,15,5,15,0.00
2013-3-24,66.9,56.3,43.7,49.5,43.1,35.4,74,62,48,30.03,29.94,14,4,14,0.00
2013-3-25,64.8,59.1,50.7,54.5,50.8,44.8,91,75,63,29.96,29.62,20,5,20,0.00
2013-3-26,69.6,61.9,53.2,52.2,45.8,39.8,76,57,39,29.65,29.51,21,7,21,0.00
2013-3-27,66.4,60.9,55.0,51.4,44.7,36.7,68,55,45,29.83,29.64,18,6,18,0.00
2013-3-28,62.6,57.9,53.8,55.4,49.0,41.6,91,73,54,30.08,29.83,14,3,14,0.09
2013-3-29,63.5,57.8,53.4,54.3,52.1,50.4,91,82,68,30.08,29.99,14,3,14,0.00
2013-3-30,67.3,60.6,52.7,56.7,53.4,49.6,90,78,63,30.01,29.84,10,3,10,0.00
2013-3-31,73.2,63.6,54.9,55.0,50.9,46.1,87,65,39,29.86,29.73,14,3,14,0.00
2013-4-1,74.3,63.1,52.0,54.2,44.1,28.1,91,55,19,29.89,29.76,24,5,24,0.00
2013-4-2,69.3,61.3,52.5,56.9,49.6,42.5,79,66,49,29.89,29.59,14,4,14,0.00
2013-4-3,72.0,63.9,58.5,58.3,46.6,35.3,91,57,28,29.66,29.47,25,7,25,0.00
2013-4-4,74.7,63.3,53.2,44.0,39.9,31.9,62,44,22,29.93,29.66,21,6,21,0.00
2013-4-5,72.1,62.5,51.6,52.6,43.6,35.8,66,51,31,29.97,29.79,17,4,17,0.00
2013-4-6,71.8,61.9,53.4,58.1,51.6,44.5,89,70,44,29.82,29.73,10,3,10,0.00
2013-4-7,69.8,63.4,59.5,58.3,53.6,43.7,89,71,55,29.75,29.30,19,5,19,0.00
2013-4-8,62.4,57.5,54.7,51.9,48.6,44.0,84,72,56,29.91,29.41,19,7,19,0.06
2013-4-9,66.2,57.6,49.5,51.4,48.1,45.4,88,72,47,30.00,29.90,11,4,11,0.00
2013-4-10,71.1,60.0,49.5,50.7,46.8,42.6,85,63,39,30.00,29.89,15,4,15,0.00
2013-4-11,69.3,60.3,50.7,52.4,46.7,41.6,74,61,41,30.03,29.92,13,4,13,0.00
2013-4-12,72.9,61.1,50.9,55.5,48.9,41.8,86,65,41,30.09,30.00,11,4,11,0.00
2013-4-13,77.7,63.6,52.7,56.8,47.8,42.1,83,59,31,30.11,30.04,14,4,14,0.00
2013-4-14,75.6,63.2,57.0,54.5,49.0,43.4,74,61,37,30.12,30.04,30,8,30,0.00
2013-4-15,65.8,59.2,56.3,45.4,41.6,36.5,61,52,39,30.12,30.02,28,12,28,0.00
2013-4-16,64.2,57.0,50.9,44.4,41.5,36.5,76,57,38,30.09,30.02,30,13,30,0.09
2013-4-17,64.4,59.3,54.3,39.7,33.1,24.4,54,38,25,30.11,30.04,36,15,36,0.00
2013-4-18,62.6,57.9,53.1,41.9,31.3,24.6,58,37,24,30.11,30.03,32,12,32,0.00
2013-4-19,61.9,56.2,51.4,45.6,36.2,30.5,70,47,39,30.03,29.95,29,10,29,0.07
2013-4-20,64.6,57.9,51.3,42.9,38.3,33.4,57,48,39,30.05,29.95,25,9,25,0.00
2013-4-21,69.4,60.6,51.8,45.2,39.0,34.0,55,45,33,30.05,29.94,17,6,17,0.00
2013-4-22,68.5,61.7,52.9,47.2,41.2,35.4,58,47,33,30.09,29.99,17,6,17,0.00
2013-4-23,67.8,61.7,55.8,50.8,45.4,39.8,71,56,43,30.24,30.09,21,7,21,0.00
2013-4-24,70.9,62.7,54.1,50.3,46.1,42.3,70,56,39,30.34,30.24,19,6,19,0.00
2013-4-25,77.0,66.3,54.7,52.2,45.6,42.2,68,49,32,30.31,30.17,17,5,17,0.00
2013-4-26,80.1,67.7,54.3,51.7,41.0,34.5,55,40,20,30.19,30.00,16,4,16,0.00
2013-4-27,82.0,69.3,55.8,52.1,42.7,34.0,61,40,20,30.01,29.91,11,4,11,0.00
2013-4-28,82.0,67.0,54.9,59.4,42.3,25.5,69,46,14,30.07,29.97,15,4,15,0.00
2013-4-29,78.8,67.6,55.0,51.9,43.8,34.8,56,43,31,30.14,30.07,14,4,14,0.00
2013-4-30,78.6,70.1,57.7,53.7,49.7,41.8,69,49,34,30.12,30.04,19,6,19,0.00
2013-5-1,82.0,72.4,60.1,55.8,48.2,33.8,72,44,19,30.07,29.96,23,6,23,0.00
2013-5-2,82.9,74.9,69.3,53.8,46.2,38.2,49,37,22,29.97,29.91,27,10,27,0.00
2013-5-3,77.7,71.0,60.4,54.7,50.5,41.3,59,48,36,29.93,29.84,19,6,19,0.00
2013-5-4,81.5,71.0,60.6,55.8,51.4,43.0,70,52,27,29.97,29.85,14,3,14,0.00
2013-5-5,81.0,72.6,63.0,56.7,52.1,48.5,62,49,36,30.06,29.94,15,5,15,0.00
2013-5-6,79.5,72.4,63.5,58.1,54.4,50.3,71,54,40,30.08,30.00,20,7,20,0.00
2013-5-7,74.3,70.6,66.2,56.7,53.1,47.3,67,54,42,30.02,29.88,24,10,24,0.00
2013-5-8,74.8,66.1,61.9,59.1,55.3,50.3,77,68,55,29.92,29.83,20,5,20,0.00
2013-5-9,71.4,65.2,59.7,59.3,54.6,51.4,77,69,62,29.91,29.83,28,10,28,0.00
2013-5-10,69.8,64.9,61.0,56.7,53.7,51.2,79,67,61,29.92,29.83,23,9,23,0.00
2013-5-11,78.6,68.0,56.7,55.1,50.8,45.1,77,57,32,29.91,29.75,14,4,14,0.00
2013-5-12,75.6,69.1,63.9,60.5,54.8,49.7,72,61,48,29.77,29.65,18,4,18,0.06
2013-5-13,74.1,64.8,59.2,58.3,53.2,48.2,85,67,42,29.71,29.66,14,3,14,0.44
2013-5-14,72.5,63.5,56.8,56.5,53.5,50.1,86,71,49,29.87,29.67,24,5,24,0.08
2013-5-15,79.5,67.2,56.7,56.4,51.4,45.7,78,59,34,29.89,29.82,14,3,14,0.00
2013-5-16,77.9,66.7,58.6,63.1,55.3,48.0,81,68,36,29.93,29.86,14,2,14,0.00
2013-5-17,79.2,68.4,60.8,61.9,58.0,52.6,83,70,47,29.92,29.82,12,2,12,0.00
2013-5-18,79.2,70.7,62.1,64.1,59.8,56.2,88,70,50,30.00,29.90,11,2,11,0.00
2013-5-19,84.0,75.4,67.3,60.5,57.0,51.7,73,54,34,29.98,29.89,10,3,10,0.00
2013-5-20,82.4,74.9,68.5,64.8,59.3,53.9,71,59,42,29.94,29.87,9,2,9,0.00
2013-5-21,86.0,74.9,65.8,61.7,57.7,51.0,77,56,32,29.93,29.86,15,3,15,0.00
2013-5-22,86.4,73.8,64.6,65.0,56.8,50.7,71,56,30,29.91,29.74,14,3,14,0.00
2013-5-23,86.0,78.6,70.7,59.6,50.7,40.9,57,39,26,29.75,29.57,30,9,30,0.00
2013-5-24,81.9,73.4,64.8,53.4,47.9,44.3,54,41,29,29.93,29.70,21,6,21,0.00
2013-5-25,82.8,72.4,63.9,56.5,48.6,43.1,63,44,27,29.95,29.88,19,7,19,0.00
2013-5-26,86.9,75.6,62.1,53.9,46.0,34.6,62,38,16,29.95,29.84,23,6,23,0.00
2013-5-27,77.7,70.2,61.5,54.9,42.7,33.0,56,38,23,29.99,29.90,14,4,14,0.00
2013-5-28,73.4,67.4,58.6,59.6,53.5,44.0,72,61,50,29.99,29.78,12,3,12,0.00
2013-5-29,80.1,72.8,63.7,63.2,57.0,47.9,80,58,46,29.79,29.58,13,4,13,0.00
2013-5-30,91.6,77.2,67.5,62.9,52.7,31.6,81,48,13,29.72,29.64,20,5,20,0.00
2013-5-31,85.5,75.7,64.9,59.2,45.4,33.4,73,38,18,29.80,29.66,20,6,20,0.00
2013-6-1,77.7,69.1,62.8,57.6,44.1,34.5,72,42,23,29.87,29.79,20,4,20,0.01
2013-6-2,81.9,71.0,62.8,59.0,50.5,38.8,83,52,26,29.85,29.67,19,4,19,0.06
2013-6-3,82.8,71.5,62.6,54.2,48.1,43.1,57,44,25,29.89,29.83,18,5,18,0.00
2013-6-4,83.7,73.9,62.8,59.8,50.2,42.3,64,45,25,29.89,29.81,20,4,20,0.00
2013-6-5,84.6,73.5,62.8,60.4,49.9,39.9,73,45,22,29.95,29.88,17,4,17,0.00
2013-6-6,78.6,71.7,63.9,62.5,59.0,55.3,82,65,46,30.03,29.94,15,4,15,0.00
2013-6-7,78.6,71.7,67.3,63.8,59.4,48.4,74,66,37,30.01,29.84,11,3,11,0.00
2013-6-8,78.6,72.8,67.8,62.5,59.0,54.7,78,63,48,29.87,29.81,19,8,19,0.00
2013-6-9,81.0,73.0,63.1,60.8,57.1,52.4,79,59,39,29.95,29.87,14,4,14,0.00
2013-6-10,81.3,74.8,65.1,63.0,57.4,52.9,72,55,41,29.95,29.82,12,4,12,0.00
2013-6-11,83.3,76.6,69.4,65.7,59.4,49.4,81,57,32,29.84,29.62,20,4,20,0.00
2013-6-12,79.3,71.6,63.1,61.9,55.1,47.8,77,57,42,29.79,29.65,27,4,27,0.09
2013-6-13,77.0,69.3,64.4,61.8,57.3,53.3,84,66,47,29.86,29.75,26,6,26,0.19
2013-6-14,77.4,70.6,63.3,63.4,59.4,56.2,84,68,56,29.92,29.83,23,6,23,0.05
2013-6-15,82.2,73.6,65.3,63.5,58.9,54.5,74,61,43,29.94,29.89,13,4,13,0.00
2013-6-16,86.5,76.7,65.3,63.6,58.9,54.3,76,56,34,29.97,29.92,11,3,11,0.00
2013-6-17,88.5,79.1,68.4,62.6,59.2,56.0,68,52,34,29.99,29.94,16,5,16,0.00
2013-6-18,87.1,81.3,71.8,63.6,59.1,55.9,61,47,38,29.98,29.91,27,9,27,0.00
2013-6-19,85.5,81.5,77.2,61.4,57.5,52.8,52,44,38,29.94,29.86,25,12,25,0.00
2013-6-20,84.9,80.6,75.4,61.6,58.4,54.4,59,47,40,29.96,29.85,24,12,24,0.00
2013-6-21,84.2,79.8,76.3,59.1,54.1,47.3,48,41,30,29.96,29.90,26,14,26,0.00
2013-6-22,85.6,79.3,71.8,55.9,51.4,43.0,54,39,23,29.93,29.85,31,10,31,0.00
2013-6-23,88.0,81.3,72.9,62.6,53.5,31.0,55,39,19,29.88,29.77,18,6,18,0.00
2013-6-24,90.3,80.4,69.8,66.4,57.6,48.7,74,47,26,29.80,29.74,14,4,14,0.00
2013-6-25,87.1,79.8,70.7,68.2,61.5,56.3,75,55,36,29.79,29.73,13,4,13,0.00
2013-6-26,86.7,78.8,69.4,68.9,62.5,55.5,67,58,44,29.87,29.77,20,6,20,0.00
2013-6-27,81.5,77.8,73.4,65.4,63.6,60.6,68,62,53,29.91,29.85,27,9,27,0.00
2013-6-28,82.8,76.8,69.1,65.9,62.9,59.3,76,63,48,29.91,29.87,18,6,18,0.00
2013-6-29,87.4,78.1,68.5,64.8,60.6,48.3,77,56,36,29.91,29.74,13,4,13,0.00
2013-6-30,82.8,76.4,67.6,59.3,52.1,43.7,62,43,31,29.87,29.75,18,6,18,0.00
2013-7-1,84.6,75.9,66.6,60.5,54.4,44.7,70,49,25,30.01,29.87,23,6,23,0.00
2013-7-2,83.7,76.2,66.2,61.0,56.8,52.4,73,52,39,30.03,29.96,13,5,13,0.00
2013-7-3,82.6,76.2,67.1,59.8,54.2,48.7,60,47,37,29.98,29.89,19,7,19,0.00
2013-7-4,82.6,77.1,68.7,58.9,52.3,44.0,49,42,32,29.93,29.87,22,7,22,0.00
2013-7-5,84.0,78.8,72.5,64.1,55.2,44.7,53,44,34,29.91,29.85,24,8,27,0.00
2013-7-6,85.5,80.7,75.6,63.2,58.7,53.0,65,48,39,29.89,29.82,30,12,30,0.00
2013-7-7,84.9,81.2,77.2,64.3,59.7,54.1,56,48,38,29.94,29.83,30,16,31,0.00
2013-7-8,86.5,82.5,77.5,62.5,56.9,51.4,50,42,35,29.98,29.93,25,13,25,0.00
2013-7-9,87.8,83.5,79.3,64.3,57.6,50.6,50,42,34,29.96,29.82,28,13,28,0.00
2013-7-10,86.4,81.4,77.5,64.2,58.4,48.7,55,46,34,29.85,29.74,27,13,27,0.00
2013-7-11,86.5,81.3,75.9,64.1,56.3,47.6,53,43,32,29.83,29.75,19,8,19,0.00
2013-7-12,87.8,80.8,70.9,64.2,58.7,54.9,60,47,35,29.91,29.82,18,5,18,0.00
2013-7-13,87.3,80.0,72.3,64.7,61.1,57.8,65,53,39,29.91,29.87,21,7,21,0.00
2013-7-14,85.8,79.4,71.2,63.5,58.8,53.8,62,50,42,29.91,29.85,20,7,20,0.00
2013-7-15,85.5,79.3,72.0,60.4,55.3,48.1,63,44,34,29.91,29.85,21,8,21,0.00
2013-7-16,85.6,79.4,70.3,60.0,55.0,48.1,54,43,35,29.93,29.87,24,8,24,0.00
2013-7-17,83.1,78.3,73.9,60.2,55.7,49.3,61,46,34,29.98,29.92,36,14,36,0.00
2013-7-18,83.7,78.8,74.1,58.7,54.8,49.6,54,44,32,30.01,29.95,35,15,35,0.00
2013-7-19,84.4,79.4,75.0,55.1,51.1,47.0,49,38,30,30.00,29.91,30,14,30,0.00
2013-7-20,86.4,80.3,74.3,57.8,52.0,42.3,49,38,29,29.91,29.81,29,10,29,0.00
2013-7-21,89.6,82.6,75.2,61.9,53.7,43.0,50,37,29,29.88,29.82,22,8,22,0.00
2013-7-22,84.4,79.7,75.0,63.7,56.3,48.8,67,46,31,29.89,29.84,28,14,28,0.00
2013-7-23,86.2,79.4,73.0,57.9,52.1,43.6,53,39,27,29.88,29.83,26,11,26,0.00
2013-7-24,88.5,82.7,76.3,59.5,51.5,44.5,47,34,29,29.91,29.85,20,8,20,0.00
2013-7-25,91.2,81.5,69.4,62.9,53.0,45.3,54,38,25,29.93,29.86,17,4,17,0.00
2013-7-26,91.2,81.6,70.3,64.1,56.2,49.2,65,43,27,29.89,29.82,16,5,16,0.00
2013-7-27,88.0,81.1,72.5,63.7,58.2,53.6,61,46,32,29.92,29.84,21,7,21,0.00
2013-7-28,87.4,81.7,73.8,61.3,57.6,52.5,58,44,34,30.00,29.91,19,7,19,0.00
2013-7-29,90.0,83.3,76.8,60.6,56.6,51.0,50,40,32,30.00,29.91,24,8,24,0.00
2013-7-30,94.6,85.6,74.7,65.1,56.5,49.8,53,38,27,29.92,29.74,14,4,14,0.00
2013-7-31,91.2,83.6,76.6,68.3,62.3,54.4,61,49,36,29.80,29.72,24,8,24,0.00
2013-8-1,84.7,81.6,79.2,66.9,62.9,55.4,65,53,43,29.92,29.79,25,12,25,0.00
2013-8-2,87.4,82.6,77.7,62.2,57.5,52.3,56,43,34,29.96,29.90,29,13,29,0.00
2013-8-3,87.1,83.1,79.0,62.6,56.0,49.3,45,40,33,29.95,29.89,23,11,23,0.00
2013-8-4,91.2,84.9,79.7,63.9,57.4,50.0,51,39,33,29.94,29.88,24,8,24,0.00
2013-8-5,84.2,80.9,77.7,65.4,56.2,49.1,62,43,31,29.97,29.91,33,15,33,0.00
2013-8-6,84.0,80.8,77.2,59.9,56.0,49.9,47,43,37,29.92,29.86,31,17,31,0.00
2013-8-7,85.3,81.8,78.4,59.5,55.2,51.2,44,40,37,29.93,29.83,30,16,30,0.00
2013-8-8,87.3,82.6,77.9,60.3,55.5,52.1,45,40,31,29.95,29.89,25,15,32,0.00
2013-8-9,87.3,82.7,78.8,64.3,58.5,52.8,53,44,38,29.92,29.80,30,12,30,0.00
2013-8-10,84.2,80.4,74.7,66.9,61.3,53.6,65,53,39,29.80,29.65,20,8,20,0.00
2013-8-11,86.2,80.6,74.1,63.7,58.7,51.4,69,48,36,29.83,29.66,29,11,29,0.00
2013-8-12,88.2,82.8,77.4,59.8,53.7,48.9,46,37,28,29.93,29.83,24,9,24,0.00
2013-8-13,90.5,84.6,79.7,60.5,52.4,44.4,42,33,26,29.91,29.84,22,9,22,0.00
2013-8-14,88.9,84.0,80.2,62.6,54.7,46.5,44,37,30,29.85,29.81,23,9,23,0.00
2013-8-15,86.4,82.2,78.4,65.0,59.0,50.5,54,45,35,29.87,29.80,27,10,27,0.00
2013-8-16,86.7,82.0,77.0,66.9,63.6,57.7,65,54,45,29.89,29.80,30,14,30,0.00
2013-8-17,84.7,81.3,77.0,64.8,62.7,59.1,63,54,45,29.90,29.82,34,18,34,0.00
2013-8-18,86.0,81.1,75.7,60.6,56.2,43.9,57,43,28,29.98,29.89,32,11,32,0.00
2013-8-19,85.6,81.9,78.8,65.8,56.1,43.8,55,42,28,29.94,29.87,24,10,24,0.00
2013-8-20,84.7,81.0,76.5,66.2,58.9,52.3,56,47,39,29.89,29.83,27,10,27,0.00
2013-8-21,83.7,80.6,76.6,64.4,59.0,50.7,64,48,37,29.90,29.84,26,12,26,0.00
2013-8-22,82.6,78.9,74.5,64.7,60.3,54.8,64,53,43,29.86,29.82,27,12,27,0.00
2013-8-23,85.3,79.9,73.8,60.2,55.4,40.6,55,43,29,29.93,29.83,25,10,25,0.00
2013-8-24,89.6,78.9,67.5,60.2,51.6,41.3,54,39,21,29.94,29.86,11,4,11,0.00
2013-8-25,89.6,79.6,70.2,63.2,53.6,46.6,55,41,24,29.88,29.83,11,3,11,0.00
2013-8-26,90.0,80.7,70.2,65.2,56.2,49.8,56,44,26,29.89,29.83,10,3,10,0.00
2013-8-27,91.6,81.1,70.7,66.6,59.9,54.3,70,50,30,29.89,29.81,12,3,12,0.00
2013-8-28,91.2,82.5,73.0,72.0,61.8,53.5,74,51,31,29.86,29.79,13,4,13,0.00
2013-8-29,91.4,82.2,73.6,68.4,64.1,56.3,74,56,31,29.89,29.83,12,3,12,0.00
2013-8-30,86.2,80.4,73.9,68.9,63.7,55.2,71,57,36,29.94,29.84,22,7,22,0.00
2013-8-31,82.8,77.0,70.5,65.5,60.1,52.0,74,57,41,29.99,29.90,22,8,22,0.00
2013-9-1,82.8,76.8,71.1,59.6,54.5,48.2,63,47,33,30.07,29.99,21,9,21,0.00
2013-9-2,83.7,76.7,69.4,61.6,51.8,37.7,66,43,28,30.09,30.00,20,7,20,0.00
2013-9-3,84.9,75.9,67.3,63.8,60.0,52.4,71,59,34,30.09,29.97,12,4,12,0.00
2013-9-4,81.5,76.2,69.3,62.1,56.0,52.3,69,50,40,30.12,30.00,24,8,24,0.00
2013-9-5,81.9,73.7,64.9,55.8,49.5,40.8,60,44,25,30.12,29.98,13,4,13,0.00
2013-9-6,81.0,73.8,64.8,60.7,55.1,48.8,67,52,41,29.99,29.89,13,3,13,0.00
2013-9-7,83.5,75.4,68.9,64.3,59.9,52.5,69,60,36,30.01,29.92,13,4,13,0.00
2013-9-8,82.9,76.0,68.0,62.5,56.3,47.6,68,51,38,30.12,30.01,20,7,20,0.00
2013-9-9,81.7,75.7,68.7,58.1,51.4,44.9,57,43,32,30.16,30.09,21,9,21,0.00
2013-9-10,82.6,75.0,66.4,61.3,53.1,42.5,63,47,30,30.11,30.00,13,3,13,0.00
2013-9-11,88.5,77.7,68.4,68.5,60.4,55.9,70,56,36,30.02,29.92,14,4,14,0.00
2013-9-12,87.3,78.1,70.3,70.0,64.9,57.6,81,65,44,29.97,29.90,13,3,13,0.00
2013-9-13,90.0,80.5,72.7,70.6,63.0,56.6,66,56,41,29.94,29.88,16,4,16,0.00
2013-9-14,83.3,76.8,68.5,60.6,54.0,44.7,62,46,27,30.03,29.92,17,6,17,0.00
2013-9-15,81.5,73.2,65.1,57.3,53.0,41.6,69,51,26,30.02,29.90,14,3,14,0.00
2013-9-16,84.0,75.0,65.1,63.2,56.6,48.7,73,54,35,29.92,29.61,19,5,19,0.00
2013-9-17,86.9,75.8,65.8,62.3,57.4,52.2,70,54,31,29.71,29.63,17,5,17,0.00
2013-9-18,89.1,79.6,70.5,58.4,54.0,44.8,57,43,23,29.67,29.59,20,6,20,0.00
2013-9-19,84.4,75.6,66.9,63.1,55.8,50.9,64,51,36,29.75,29.66,14,4,14,0.00
2013-9-20,81.5,74.7,68.9,62.1,58.8,55.3,68,58,46,29.95,29.73,14,5,14,0.00
2013-9-21,78.6,73.4,69.6,63.0,57.2,53.6,73,58,44,30.05,29.94,17,8,17,0.00
2013-9-22,76.1,70.0,66.4,56.4,52.3,47.5,65,54,40,30.09,30.04,27,9,27,0.00
2013-9-23,77.4,69.8,63.7,51.9,48.4,44.9,58,47,34,30.07,29.93,26,9,26,0.00
2013-9-24,78.3,69.7,60.4,55.4,51.4,47.6,67,53,37,29.96,29.90,14,3,14,0.00
2013-9-25,85.8,72.2,61.9,67.8,57.3,51.7,74,61,35,30.02,29.95,14,3,14,0.00
2013-9-26,85.1,72.9,63.9,65.8,61.1,54.6,88,68,38,30.01,29.88,14,4,14,0.00
2013-9-27,83.7,73.6,66.2,62.7,58.2,53.1,75,60,37,29.92,29.85,12,3,12,0.00
2013-9-28,80.6,73.4,64.0,63.3,60.2,55.5,81,64,44,29.94,29.88,13,4,13,0.00
2013-9-29,87.6,74.0,64.6,68.2,61.0,50.3,81,66,33,29.93,29.85,13,3,13,0.00
2013-9-30,90.0,76.5,64.9,68.6,62.3,54.9,89,65,31,29.89,29.65,17,4,17,0.00
2013-10-1,82.8,74.4,58.8,69.4,61.6,52.0,93,67,41,29.66,29.51,20,6,23,0.50
2013-10-2,72.1,68.3,62.6,58.1,54.7,51.5,69,62,54,29.97,29.61,24,12,24,0.01
2013-10-3,64.2,60.9,59.0,52.3,47.9,42.6,75,63,52,30.27,29.97,24,14,24,0.14
2013-10-4,61.0,58.4,56.8,43.5,41.4,39.1,59,53,45,30.38,30.26,24,13,24,0.00
2013-10-5,61.9,57.8,53.4,42.2,40.3,37.9,59,52,47,30.37,30.29,23,12,23,0.00
2013-10-6,63.9,58.5,52.9,43.6,41.7,39.1,62,54,44,30.35,30.27,24,9,24,0.00
2013-10-7,67.6,61.5,56.7,46.6,44.3,42.5,61,54,41,30.36,30.31,26,11,26,0.00
2013-10-8,69.6,64.1,59.4,52.3,48.3,43.1,61,56,52,30.35,30.27,27,10,27,0.00
2013-10-9,72.0,65.1,59.0,53.1,49.6,46.6,66,58,42,30.30,30.15,15,5,15,0.00
2013-10-10,72.3,65.5,58.1,60.8,55.0,50.0,77,69,61,30.17,30.03,17,3,17,0.00
2013-10-11,84.4,71.4,62.6,66.1,59.3,53.0,78,67,41,30.19,30.09,11,3,11,0.00
2013-10-12,79.0,70.8,63.1,68.7,62.5,57.9,88,75,60,30.21,30.15,14,4,14,0.00
2013-10-13,76.5,69.9,65.7,65.5,61.6,52.7,86,75,60,30.18,30.12,22,8,22,0.00
2013-10-14,77.0,69.3,64.8,59.2,56.5,52.4,78,64,51,30.16,30.09,18,8,18,0.00
2013-10-15,80.4,68.8,60.4,62.1,56.1,49.8,77,64,46,30.15,29.96,14,3,14,0.00
2013-10-16,73.4,68.9,65.5,65.8,60.2,57.1,83,74,58,29.96,29.56,21,4,21,0.09
2013-10-17,71.1,66.0,58.1,62.4,50.6,42.6,76,59,38,29.75,29.50,21,6,21,0.12
2013-10-18,73.4,66.5,60.8,50.0,46.6,43.2,67,49,39,30.04,29.74,19,5,19,0.01
2013-10-19,73.4,66.2,59.2,50.9,44.1,37.7,67,46,28,30.37,30.04,17,6,17,0.00
2013-10-20,70.5,63.9,57.9,51.5,45.0,40.3,65,51,34,30.42,30.35,20,7,20,0.00
2013-10-21,70.9,63.5,57.7,51.8,46.9,40.1,70,55,47,30.36,30.20,14,4,14,0.00
2013-10-22,72.0,63.1,53.6,58.0,52.3,46.6,81,69,52,30.23,30.13,14,5,14,0.00
2013-10-23,76.6,67.8,60.1,55.7,52.4,48.3,78,59,46,30.22,30.16,23,8,23,0.00
2013-10-24,73.0,68.0,63.1,51.8,47.0,40.0,56,47,31,30.22,30.17,28,13,28,0.00
2013-10-25,70.0,64.5,60.4,53.4,49.3,43.6,67,58,48,30.21,30.13,22,10,22,0.00
2013-10-26,71.2,63.7,58.5,53.7,49.0,45.5,67,59,41,30.22,30.16,24,9,24,0.00
2013-10-27,70.3,63.2,57.4,55.5,50.6,42.7,77,64,54,30.19,30.09,20,6,20,0.00
2013-10-28,71.1,61.6,53.4,60.0,52.5,47.9,86,73,56,30.13,30.06,12,3,12,0.01
2013-10-29,72.9,62.1,53.1,61.3,52.8,47.2,85,72,53,30.08,29.99,8,2,8,0.01
2013-10-30,72.0,64.5,57.0,60.9,54.9,49.9,84,72,54,30.09,30.01,16,5,16,0.01
2013-10-31,73.8,66.0,59.7,55.3,50.6,45.5,70,58,46,30.19,30.07,23,8,23,0.00
2013-11-1,68.2,64.1,59.2,52.9,50.4,47.4,67,61,54,30.22,30.15,27,14,27,0.00
2013-11-2,68.0,61.9,56.1,52.8,48.9,46.7,72,63,55,30.18,30.09,14,5,14,0.00
2013-11-3,71.1,62.3,53.4,60.6,53.6,46.7,83,73,62,30.13,30.03,11,3,11,0.00
2013-11-4,76.1,65.9,58.3,64.8,56.1,52.4,87,72,47,30.07,29.95,12,2,12,0.01
2013-11-5,73.8,67.5,59.7,61.8,56.7,53.9,85,69,54,29.94,29.73,21,5,21,0.00
2013-11-6,70.7,63.2,59.0,58.4,55.3,50.7,85,76,59,29.73,29.60,25,5,25,1.23
2013-11-7,67.8,62.6,59.4,59.5,51.0,39.7,84,67,44,30.13,29.68,27,8,27,0.08
2013-11-8,68.5,62.7,58.5,51.4,47.5,39.8,68,58,48,30.19,30.11,15,6,15,0.00
2013-11-9,68.5,61.9,56.3,54.3,50.3,43.5,78,66,59,30.14,30.03,17,5,17,0.00
2013-11-10,70.7,60.9,52.0,62.0,53.8,47.0,87,78,64,30.03,29.88,9,2,9,0.01
2013-11-11,72.9,66.0,59.4,65.6,58.5,54.4,89,77,64,29.99,29.84,14,4,14,0.04
2013-11-12,72.1,67.4,63.0,63.2,60.4,56.7,84,78,70,30.09,29.99,14,4,14,0.12
2013-11-13,68.4,63.8,61.3,58.5,55.3,52.0,83,74,66,30.09,29.99,24,10,24,0.01
2013-11-14,63.3,60.8,57.9,55.5,53.4,50.6,86,77,70,29.99,29.88,24,12,24,0.60
2013-11-15,64.6,59.7,57.2,52.8,50.4,49.0,78,71,62,30.14,29.91,23,10,23,0.00
2013-11-16,62.1,59.3,57.9,50.9,47.6,40.9,74,65,52,30.20,30.12,31,15,31,0.00
2013-11-17,60.1,57.0,53.6,44.3,41.1,37.3,60,55,47,30.22,30.14,29,14,29,0.00
2013-11-18,62.2,57.5,54.1,43.7,41.7,39.7,60,56,47,30.18,30.12,27,11,27,0.00
2013-11-19,63.0,57.8,54.3,48.4,44.9,40.5,71,62,55,30.17,30.05,12,4,12,0.00
2013-11-20,69.3,64.1,57.2,62.7,55.8,48.1,85,75,67,30.06,29.88,22,4,22,1.23
2013-11-21,70.9,64.2,57.6,58.7,53.0,50.2,79,67,54,29.91,29.77,23,4,23,0.28
2013-11-22,67.3,59.0,53.6,57.8,50.9,46.4,85,75,63,29.83,29.71,11,2,11,0.09
2013-11-23,70.0,59.8,50.9,60.0,50.6,45.1,85,72,58,29.83,29.75,21,3,21,0.01
2013-11-24,67.5,59.9,57.0,57.2,51.9,49.0,82,75,63,29.81,29.68,29,4,29,0.76
2013-11-25,65.3,57.6,52.2,55.5,48.9,45.8,85,74,53,29.75,29.71,10,2,10,0.01
2013-11-26,65.8,56.7,51.3,52.7,47.0,43.5,77,70,55,29.81,29.69,13,2,13,0.01
2013-11-27,63.7,55.3,49.8,46.9,40.5,31.6,82,60,32,30.23,29.79,15,4,15,0.00
2013-11-28,57.9,51.6,43.2,40.1,35.8,31.8,65,55,40,30.34,30.23,17,5,17,0.00
2013-11-29,59.5,49.0,39.6,43.1,37.5,30.6,73,65,52,30.27,30.12,6,2,6,0.00
2013-11-30,58.6,55.2,50.0,47.2,43.4,38.9,74,64,59,30.17,30.07,14,5,14,0.11
2013-12-1,64.8,60.9,54.1,57.1,52.7,45.7,80,74,69,30.11,29.94,21,6,21,0.15
2013-12-2,63.7,60.1,58.6,57.8,54.3,50.9,87,81,74,30.12,29.98,25,11,25,0.34
2013-12-3,59.2,51.0,44.4,51.8,40.7,34.0,77,68,57,30.22,30.11,50,26,50,0.02
2013-12-4,49.8,46.9,44.4,36.9,34.1,30.8,73,61,51,30.18,30.09,40,18,40,0.01
2013-12-5,56.1,48.5,42.8,36.3,32.3,28.0,64,54,44,30.12,30.06,21,7,21,0.00
2013-12-6,59.9,49.8,39.6,39.7,32.4,24.0,62,51,43,30.11,29.88,12,3,12,0.00
2013-12-7,57.7,51.1,47.7,47.7,36.2,22.5,73,58,36,30.27,29.86,27,9,27,0.00
2013-12-8,52.3,46.5,41.2,24.9,22.5,20.5,45,39,31,30.45,30.27,24,7,24,0.00
2013-12-9,59.4,48.8,41.2,32.8,23.6,15.9,57,38,19,30.45,30.23,10,3,10,0.00
2013-12-10,59.4,50.9,44.4,42.2,34.4,28.1,75,54,35,30.43,30.14,39,10,39,0.07
2013-12-11,46.0,43.2,41.9,28.5,22.1,16.9,50,43,34,30.56,30.42,46,22,46,0.00
2013-12-12,50.5,44.3,36.0,34.3,25.9,19.3,60,48,35,30.48,30.28,29,9,29,0.00
2013-12-13,49.6,46.0,41.7,39.1,36.4,32.9,76,69,57,30.29,30.19,22,6,22,0.01
2013-12-14,55.9,46.1,38.5,44.1,36.2,32.2,79,69,54,30.41,30.24,6,2,6,0.01
2013-12-15,60.8,50.9,43.0,50.1,42.8,34.6,79,74,70,30.41,30.33,7,2,7,0.00
2013-12-16,57.2,52.8,50.4,46.7,42.7,34.1,79,69,52,30.44,30.33,30,11,30,0.00
2013-12-17,52.0,50.0,46.9,38.6,34.8,31.8,64,56,50,30.46,30.38,36,19,36,0.00
2013-12-18,48.6,46.9,44.8,40.0,36.6,32.9,75,67,58,30.38,30.25,24,11,24,0.11
2013-12-19,52.3,49.1,45.9,39.0,35.6,31.8,67,60,52,30.34,30.26,19,8,19,0.00
2013-12-20,54.7,47.0,39.7,39.1,34.6,28.6,72,62,54,30.51,30.33,11,3,11,0.00
2013-12-21,55.8,47.2,38.5,45.4,38.0,31.8,80,70,61,30.56,30.49,11,4,11,0.00
2013-12-22,57.6,50.5,43.9,41.2,36.6,30.2,68,59,45,30.55,30.43,26,8,26,0.00
2013-12-23,55.2,50.5,47.7,41.5,39.0,36.9,69,65,58,30.43,30.33,15,6,15,0.00
2013-12-24,55.8,51.5,48.0,44.6,41.8,38.0,72,69,67,30.35,30.25,17,5,17,0.00
2013-12-25,57.7,54.3,52.3,49.7,47.5,44.3,82,78,72,30.26,30.09,17,7,17,0.18
2013-12-26,60.4,55.9,49.6,54.3,50.1,44.2,85,81,77,30.10,29.90,13,2,13,0.08
2013-12-27,60.4,56.7,52.9,52.5,50.0,47.8,84,78,71,29.90,29.81,21,4,21,1.32
2013-12-28,58.8,55.1,52.3,50.4,48.2,41.7,86,78,67,29.96,29.83,21,9,21,0.09
2013-12-29,58.8,54.5,49.1,45.4,42.3,37.1,69,63,56,30.11,29.94,19,7,19,0.00
2013-12-30,60.1,53.0,46.8,45.8,41.3,36.0,73,65,53,30.17,30.09,21,7,21,0.00
2013-12-31,52.0,50.5,49.5,41.8,38.7,37.4,69,64,61,30.23,30.15,28,15,28,0.00
2014-1-1,51.4,48.4,46.9,43.0,39.2,36.4,80,71,64,30.20,30.12,24,8,24,0.24
2014-1-2,55.4,51.2,48.7,43.7,42.0,39.0,80,71,63,30.16,30.09,20,8,20,0.01